Time;durP1;ratioP1;P1;durP2;ratioP2;P2;SDS_P1;SDS_P2;PMS_P1;PMS_P2;Temp;Humidity;BMP_temperature;BMP_pressure;BME280_temperature;BME280_humidity;BME280_pressure;Samples;Min_cycle;Max_cycle;Signal;HPM_P1;HPM_P2
2022/05/05 00:00:09;;;;;;;13.80;10.30;;;;;;;9.55;56.41;101600.00;5079147;28;20184;-66
2022/05/05 00:02:35;;;;;;;16.60;10.33;;;;;;;9.35;57.23;101605.56;5078994;28;20180;-66
2022/05/05 00:05:01;;;;;;;10.57;8.00;;;;;;;9.11;57.87;101603.13;5079242;28;20546;-66
2022/05/05 00:07:26;;;;;;;12.07;8.20;;;;;;;9.08;58.51;101601.31;5078686;28;20411;-65
2022/05/05 00:09:51;;;;;;;9.90;8.10;;;;;;;9.24;57.98;101601.75;5078831;28;20267;-65
2022/05/05 00:15:00;;;;;;;13.70;10.03;;;;;;;9.16;58.21;101598.94;5078682;28;20188;-66
2022/05/05 00:17:26;;;;;;;14.20;9.13;;;;;;;9.06;58.29;101600.38;5078608;28;20435;-65
2022/05/05 00:19:51;;;;;;;10.73;8.40;;;;;;;9.13;58.25;101597.97;5078476;28;20204;-67
2022/05/05 00:22:17;;;;;;;9.30;7.80;;;;;;;9.02;58.59;101595.03;5078267;28;20255;-65
2022/05/05 00:24:42;;;;;;;10.43;7.87;;;;;;;8.97;58.71;101599.22;5078946;28;20173;-65
2022/05/05 00:27:07;;;;;;;11.57;8.40;;;;;;;9.12;58.21;101604.00;5078559;28;20180;-65
2022/05/05 00:29:33;;;;;;;11.70;7.80;;;;;;;9.20;58.35;101607.69;5078257;28;20236;-65
2022/05/05 00:31:59;;;;;;;10.67;8.87;;;;;;;9.06;58.00;101605.56;5078711;28;20169;-66
2022/05/05 00:34:24;;;;;;;9.97;8.90;;;;;;;8.97;58.13;101601.81;5078400;28;20223;-66
2022/05/05 00:36:50;;;;;;;8.20;7.43;;;;;;;8.93;58.68;101604.34;5078256;28;20540;-65
2022/05/05 00:39:15;;;;;;;9.43;7.90;;;;;;;9.18;58.17;101606.78;5078775;28;20187;-65
2022/05/05 00:41:46;;;;;;;12.70;9.70;;;;;;;9.30;57.83;101607.13;5078066;28;20173;-66
2022/05/05 00:44:12;;;;;;;14.57;8.37;;;;;;;9.19;58.08;101598.16;5078340;28;20192;-65
2022/05/05 00:46:37;;;;;;;10.10;9.10;;;;;;;8.92;58.85;101601.69;5078112;28;20467;-66
2022/05/05 00:49:04;;;;;;;9.90;9.00;;;;;;;8.92;58.81;101604.28;5078083;28;20553;-65
2022/05/05 00:51:29;;;;;;;9.23;8.10;;;;;;;8.89;58.91;101611.97;5078087;28;20484;-65
2022/05/05 00:53:54;;;;;;;11.03;7.67;;;;;;;8.99;58.58;101613.16;5078207;28;20427;-64
2022/05/05 00:56:20;;;;;;;9.80;8.80;;;;;;;8.66;59.20;101616.47;5078245;28;20612;-64
2022/05/05 00:58:47;;;;;;;10.27;8.60;;;;;;;8.70;59.29;101614.03;5078496;28;20218;-65
2022/05/05 01:01:20;;;;;;;12.60;8.90;;;;;;;8.59;59.72;101610.19;5078234;28;20422;-64
2022/05/05 01:03:45;;;;;;;14.50;8.40;;;;;;;8.75;59.54;101614.16;5077917;28;20435;-65
2022/05/05 01:06:12;;;;;;;14.03;8.93;;;;;;;8.98;58.80;101604.47;5077967;28;20501;-65
2022/05/05 01:08:37;;;;;;;10.73;8.73;;;;;;;8.85;59.02;101610.13;5077874;28;20204;-65
2022/05/05 01:11:03;;;;;;;20.13;9.43;;;;;;;8.92;59.16;101607.75;5078028;28;20430;-64
2022/05/05 01:13:29;;;;;;;14.60;8.80;;;;;;;8.76;59.24;101608.13;5078181;28;20422;-65
2022/05/05 01:15:55;;;;;;;9.97;8.57;;;;;;;8.56;59.58;101608.38;5077845;28;20879;-66
2022/05/05 01:18:21;;;;;;;11.73;8.80;;;;;;;8.77;59.87;101609.91;5077925;28;20418;-65
2022/05/05 01:20:48;;;;;;;18.37;9.27;;;;;;;8.69;59.53;101612.25;5078148;28;20438;-65
2022/05/05 01:23:14;;;;;;;14.00;9.47;;;;;;;8.51;60.03;101616.88;5080482;28;20234;-65
2022/05/05 01:28:24;;;;;;;15.23;9.03;;;;;;;8.64;59.83;101626.81;5077992;28;20787;-66
2022/05/05 01:30:50;;;;;;;10.17;8.47;;;;;;;8.60;59.99;101624.97;5077655;28;20422;-66
2022/05/05 01:33:26;;;;;;;11.47;8.10;;;;;;;8.48;60.19;101624.56;5077700;28;20172;-65
2022/05/05 01:35:54;;;;;;;11.33;8.80;;;;;;;8.58;60.18;101634.44;5077664;28;20218;-65
2022/05/05 01:38:20;;;;;;;13.60;9.10;;;;;;;8.61;59.91;101629.34;5077951;28;20427;-65
2022/05/05 01:40:46;;;;;;;9.77;8.77;;;;;;;8.32;59.99;101629.25;5077631;28;20419;-65
2022/05/05 01:43:13;;;;;;;9.03;7.93;;;;;;;8.31;60.88;101635.25;5077768;28;20415;-65
2022/05/05 01:45:38;;;;;;;12.97;8.70;;;;;;;8.35;60.99;101636.22;5077476;28;20169;-65
2022/05/05 01:48:04;;;;;;;15.40;8.70;;;;;;;8.67;59.92;101641.63;5077215;28;20489;-65
2022/05/05 01:50:31;;;;;;;11.40;9.00;;;;;;;8.24;60.82;101638.47;5077858;28;20447;-65
2022/05/05 01:52:56;;;;;;;9.97;8.50;;;;;;;8.05;60.88;101635.25;5077505;28;20176;-64
2022/05/05 01:55:22;;;;;;;15.40;8.57;;;;;;;8.22;60.83;101625.44;5077854;28;20441;-65
2022/05/05 01:57:47;;;;;;;11.70;9.33;;;;;;;8.24;60.72;101631.56;5077041;28;20179;-64
2022/05/05 02:00:13;;;;;;;12.60;8.70;;;;;;;8.25;60.76;101632.44;5077333;28;20185;-65
2022/05/05 02:02:38;;;;;;;10.23;8.80;;;;;;;8.38;60.46;101639.81;5077127;28;20200;-67
2022/05/05 02:05:06;;;;;;;10.03;8.60;;;;;;;8.37;60.63;101637.19;5077708;28;20251;-65
2022/05/05 02:07:31;;;;;;;9.33;8.33;;;;;;;8.31;60.54;101639.56;5077241;28;20251;-65
2022/05/05 02:09:59;;;;;;;12.87;8.80;;;;;;;8.18;60.97;101646.06;5077329;28;20552;-65
2022/05/05 02:12:24;;;;;;;11.33;9.20;;;;;;;8.30;60.51;101650.81;5077525;28;20597;-64
2022/05/05 02:14:49;;;;;;;11.83;7.83;;;;;;;7.91;61.38;101646.88;5077153;28;20415;-65
2022/05/05 02:17:14;;;;;;;9.27;8.20;;;;;;;7.98;61.28;101640.19;5077050;28;20196;-66
2022/05/05 02:19:40;;;;;;;12.83;8.67;;;;;;;8.17;61.03;101647.78;5080120;28;20561;-65
2022/05/05 02:22:05;;;;;;;9.20;8.20;;;;;;;8.21;60.71;101643.56;5080136;28;20177;-65
2022/05/05 02:24:31;;;;;;;12.03;8.30;;;;;;;8.27;60.74;101649.84;5081002;28;20191;-66
2022/05/05 02:26:56;;;;;;;12.93;8.97;;;;;;;7.93;61.05;101658.22;5081324;28;20227;-65
2022/05/05 02:29:21;;;;;;;15.70;9.07;;;;;;;8.07;60.95;101659.56;5080845;28;20534;-65
2022/05/05 02:31:47;;;;;;;12.23;9.70;;;;;;;8.14;60.78;101662.38;5080905;28;20572;-65
2022/05/05 02:34:12;;;;;;;11.23;9.50;;;;;;;8.02;60.92;101661.09;5081115;28;20251;-64
2022/05/05 02:39:22;;;;;;;10.97;9.40;;;;;;;7.97;61.31;101656.59;5080726;28;20449;-65
2022/05/05 02:41:48;;;;;;;12.70;9.07;;;;;;;7.83;61.42;101654.38;5080291;28;20426;-65
2022/05/05 02:44:13;;;;;;;13.20;10.20;;;;;;;7.85;61.61;101657.94;5080528;28;20414;-65
2022/05/05 02:46:39;;;;;;;11.87;9.53;;;;;;;8.09;61.03;101657.91;5080615;28;20221;-65
2022/05/05 02:49:04;;;;;;;11.93;9.33;;;;;;;7.89;61.72;101661.53;5080707;28;20485;-66
2022/05/05 02:51:29;;;;;;;15.00;10.00;;;;;;;8.04;60.96;101659.47;5080676;28;20169;-65
2022/05/05 02:54:55;;;;;;;12.63;10.30;;;;;;;8.13;60.82;101658.00;5080457;28;20234;-66
2022/05/05 02:56:49;;;;;;;9.90;8.93;;;;;;;7.97;61.15;101652.31;5057331;28;20209;-66
2022/05/05 02:59:14;;;;;;;12.50;9.50;;;;;;;7.94;61.79;101659.97;5080222;28;20419;-65
2022/05/05 03:01:40;;;;;;;11.60;9.00;;;;;;;7.86;61.49;101659.72;5080173;28;20264;-65
2022/05/05 03:04:05;;;;;;;14.40;9.90;;;;;;;7.84;62.22;101657.88;5080574;28;20176;-65
2022/05/05 03:06:30;;;;;;;16.70;9.77;;;;;;;7.35;62.88;101664.75;5080242;28;20187;-65
2022/05/05 03:08:55;;;;;;;15.37;9.37;;;;;;;7.69;62.81;101661.69;5079794;28;21270;-65
2022/05/05 03:11:21;;;;;;;12.17;10.57;;;;;;;7.71;62.43;101662.63;5080217;28;20439;-66
2022/05/05 03:13:46;;;;;;;12.20;9.80;;;;;;;7.97;61.74;101657.50;5080035;28;20565;-65
2022/05/05 03:16:11;;;;;;;16.43;9.27;;;;;;;7.98;61.06;101658.38;5079935;28;20201;-64
2022/05/05 03:18:40;;;;;;;12.80;9.50;;;;;;;7.98;61.35;101656.63;5080139;28;20173;-64
2022/05/05 03:21:08;;;;;;;10.80;9.30;;;;;;;7.68;62.33;101654.72;5079696;28;20210;-64
2022/05/05 03:23:34;;;;;;;10.63;9.57;;;;;;;7.93;62.30;101655.63;5079721;28;20437;-64
2022/05/05 03:25:59;;;;;;;13.87;10.40;;;;;;;7.87;61.38;101664.03;5080107;28;20828;-65
2022/05/05 03:28:24;;;;;;;12.13;8.80;;;;;;;7.98;61.13;101654.03;5079979;28;20208;-64
2022/05/05 03:30:50;;;;;;;10.73;9.07;;;;;;;7.90;61.49;101663.28;5081222;28;20173;-65
2022/05/05 03:33:15;;;;;;;12.63;9.87;;;;;;;7.79;61.75;101662.03;5089655;28;20157;-65
2022/05/05 03:35:40;;;;;;;10.07;8.90;;;;;;;7.83;62.07;101654.38;5079884;28;20469;-65
2022/05/05 03:38:06;;;;;;;11.57;9.80;;;;;;;7.80;61.58;101656.88;5079634;28;20223;-65
2022/05/05 03:40:31;;;;;;;11.40;8.67;;;;;;;7.80;62.15;101663.78;5080050;28;20562;-65
2022/05/05 03:42:57;;;;;;;12.37;9.10;;;;;;;7.97;61.22;101666.97;5079420;28;20180;-65
2022/05/05 03:45:23;;;;;;;11.43;8.20;;;;;;;8.12;61.49;101669.22;5079536;28;20173;-66
2022/05/05 03:47:49;;;;;;;11.60;9.43;;;;;;;7.66;62.58;101681.44;5079064;28;20474;-66
2022/05/05 03:50:14;;;;;;;11.07;9.67;;;;;;;7.74;62.35;101673.13;5079213;28;20184;-66
2022/05/05 03:52:39;;;;;;;12.13;8.50;;;;;;;7.82;62.34;101673.41;5079433;28;20565;-65
2022/05/05 03:55:05;;;;;;;14.67;9.00;;;;;;;7.90;62.22;101684.03;5079265;28;20161;-66
2022/05/05 03:57:30;;;;;;;9.50;8.50;;;;;;;8.09;61.70;101678.69;5079120;28;20165;-65
2022/05/05 03:59:56;;;;;;;14.80;9.87;;;;;;;8.03;61.79;101686.25;5079638;28;20179;-66
2022/05/05 04:02:21;;;;;;;14.37;10.00;;;;;;;7.79;62.26;101683.66;5079114;28;20184;-66
2022/05/05 04:04:46;;;;;;;10.80;9.13;;;;;;;8.02;61.50;101687.06;5079099;28;20177;-65
2022/05/05 04:07:12;;;;;;;9.30;8.30;;;;;;;7.89;61.71;101682.31;5079431;28;20538;-66
2022/05/05 04:09:37;;;;;;;12.00;9.10;;;;;;;8.19;61.08;101684.22;5078917;28;20291;-66
2022/05/05 04:12:02;;;;;;;11.03;8.87;;;;;;;8.23;60.76;101680.88;5079067;28;20437;-67
2022/05/05 04:14:28;;;;;;;12.87;8.80;;;;;;;8.32;60.99;101685.50;5079436;28;20168;-66
2022/05/05 04:16:53;;;;;;;11.50;9.00;;;;;;;8.31;60.49;101682.03;5079376;28;20193;-66
2022/05/05 04:19:19;;;;;;;10.00;9.00;;;;;;;9.07;59.04;101682.78;5079423;28;20168;-67
2022/05/05 04:21:44;;;;;;;15.00;8.40;;;;;;;10.30;55.13;101687.13;5079033;28;20173;-68
2022/05/05 04:24:09;;;;;;;9.47;8.17;;;;;;;11.48;52.21;101674.25;5078628;28;20187;-66
2022/05/05 04:26:35;;;;;;;9.17;8.20;;;;;;;11.31;51.80;101682.56;5078628;28;20204;-66
2022/05/05 04:29:01;;;;;;;11.13;7.77;;;;;;;11.93;49.99;101678.59;5077965;28;20513;-66
2022/05/05 04:31:28;;;;;;;10.57;8.57;;;;;;;12.48;49.52;101673.53;5078921;28;20198;-66
2022/05/05 04:33:54;;;;;;;8.73;7.67;;;;;;;12.40;48.31;101676.00;5078403;28;20423;-67
2022/05/05 04:36:19;;;;;;;10.73;7.00;;;;;;;12.93;47.34;101677.72;5070520;28;20425;-68
2022/05/05 04:38:44;;;;;;;10.23;7.27;;;;;;;12.85;46.94;101688.94;5078031;28;20180;-66
2022/05/05 04:41:10;;;;;;;10.27;6.87;;;;;;;13.34;45.77;101686.16;5068482;28;20173;-67
2022/05/05 04:43:36;;;;;;;11.50;6.33;;;;;;;13.92;45.46;101684.28;5065187;28;20176;-66
2022/05/05 04:46:01;;;;;;;6.73;6.10;;;;;;;14.40;43.76;101682.13;5074503;28;20211;-66
2022/05/05 04:48:27;;;;;;;8.00;7.20;;;;;;;14.04;44.40;101683.50;5074304;28;20212;-68
2022/05/05 04:50:53;;;;;;;7.57;6.63;;;;;;;14.63;42.59;101682.34;5076616;28;20430;-70
2022/05/05 04:53:18;;;;;;;9.00;6.27;;;;;;;14.64;43.39;101683.25;5076858;28;20199;-68
2022/05/05 04:55:44;;;;;;;11.87;5.90;;;;;;;14.62;42.55;101684.94;5072978;28;20471;-69
2022/05/05 04:58:09;;;;;;;8.03;7.23;;;;;;;13.86;44.14;101688.59;5067023;28;20491;-68
2022/05/05 05:00:36;;;;;;;6.57;5.97;;;;;;;13.07;45.86;101688.41;5067651;28;20176;-67
2022/05/05 05:03:01;;;;;;;6.87;6.17;;;;;;;13.53;45.44;101690.81;5067273;28;20237;-66
2022/05/05 05:05:26;;;;;;;6.50;5.90;;;;;;;13.88;44.29;101692.09;5063637;28;20417;-69
2022/05/05 05:07:51;;;;;;;6.20;5.60;;;;;;;13.77;44.68;101695.47;5077601;28;20611;-67
2022/05/05 05:10:17;;;;;;;7.27;6.67;;;;;;;13.39;46.05;101708.94;5078418;28;20553;-66
2022/05/05 05:12:42;;;;;;;15.73;6.90;;;;;;;13.21;45.15;101698.22;5077979;28;20183;-67
2022/05/05 05:15:08;;;;;;;12.67;7.40;;;;;;;11.68;48.96;101719.94;5078193;28;20546;-66
2022/05/05 05:17:33;;;;;;;14.60;7.60;;;;;;;12.18;48.92;101715.69;5077526;28;20187;-67
2022/05/05 05:19:59;;;;;;;10.77;6.87;;;;;;;12.43;47.90;101715.31;5076576;28;20173;-68
2022/05/05 05:22:24;;;;;;;12.80;8.00;;;;;;;14.37;43.60;101720.56;5077473;28;20275;-67
2022/05/05 05:24:50;;;;;;;10.57;7.50;;;;;;;16.17;39.20;101705.03;5066127;28;20209;-67
2022/05/05 05:27:15;;;;;;;13.53;8.10;;;;;;;15.81;40.07;101712.81;5078518;28;20164;-68
2022/05/05 05:29:40;;;;;;;12.60;7.47;;;;;;;16.32;38.32;101712.94;5078223;28;20250;-67
2022/05/05 05:32:06;;;;;;;14.57;6.90;;;;;;;17.20;37.03;101712.06;5078062;28;20169;-67
2022/05/05 05:34:31;;;;;;;9.13;5.63;;;;;;;17.09;36.66;101705.94;5078549;28;20165;-68
2022/05/05 05:36:57;;;;;;;11.33;5.23;;;;;;;17.75;35.28;101711.00;5074911;28;20265;-67
2022/05/05 05:39:22;;;;;;;31.53;7.70;;;;;;;17.65;35.92;101715.44;5067593;28;20208;-67
2022/05/05 05:41:47;;;;;;;6.27;5.17;;;;;;;18.07;34.41;101715.25;5077745;28;20251;-67
2022/05/05 05:44:13;;;;;;;8.27;4.83;;;;;;;17.90;35.26;101717.06;5072811;28;20259;-68
2022/05/05 05:46:38;;;;;;;6.07;4.47;;;;;;;16.80;36.52;101720.00;5070371;28;20228;-68
2022/05/05 05:49:05;;;;;;;8.53;4.90;;;;;;;17.72;35.02;101716.28;5066756;28;20574;-67
2022/05/05 05:51:30;;;;;;;6.20;4.40;;;;;;;18.38;33.80;101717.69;5074008;28;20539;-68
2022/05/05 05:53:56;;;;;;;11.33;5.33;;;;;;;20.12;31.06;101707.06;5078117;28;20412;-68
2022/05/05 05:56:21;;;;;;;10.13;5.20;;;;;;;18.32;34.20;101723.00;5062046;28;20169;-68
2022/05/05 05:58:46;;;;;;;7.03;4.77;;;;;;;17.84;34.60;101729.41;5061953;28;20177;-68
2022/05/05 06:01:12;;;;;;;6.63;5.07;;;;;;;19.02;32.95;101732.16;5067855;28;20174;-69
2022/05/05 06:03:56;;;;;;;9.80;5.10;;;;;;;18.30;33.53;101728.31;5068332;28;20197;-68
2022/05/05 06:06:23;;;;;;;5.70;4.47;;;;;;;18.45;33.74;101731.72;5072048;28;20172;-68
2022/05/05 06:08:49;;;;;;;7.30;4.83;;;;;;;18.69;33.36;101728.03;5073138;28;20479;-68
2022/05/05 06:11:16;;;;;;;8.10;4.23;;;;;;;18.68;33.56;101731.53;5076295;28;20445;-68
2022/05/05 06:13:42;;;;;;;6.37;4.53;;;;;;;18.71;33.54;101734.16;5080894;28;20492;-68
2022/05/05 06:16:09;;;;;;;4.73;4.30;;;;;;;18.51;34.46;101735.19;5081772;28;20415;-69
2022/05/05 06:18:37;;;;;;;8.97;4.73;;;;;;;20.49;30.74;101732.97;5081303;28;20255;-69
2022/05/05 06:21:02;;;;;;;6.90;4.60;;;;;;;18.33;33.94;101746.78;5081481;28;20461;-67
2022/05/05 06:23:28;;;;;;;5.60;4.10;;;;;;;18.19;34.29;101745.97;5078511;28;20839;-69
2022/05/05 06:25:53;;;;;;;11.20;9.03;;;;;;;18.32;36.34;101745.03;5073381;28;20200;-64
2022/05/05 06:28:18;;;;;;;6.57;4.63;;;;;;;16.70;37.23;101747.19;5078117;28;20251;-65
2022/05/05 06:30:44;;;;;;;9.17;5.10;;;;;;;17.14;37.48;101751.59;5080470;28;20180;-64
2022/05/05 06:33:12;;;;;;;6.97;3.80;;;;;;;17.88;35.01;101750.50;5078827;28;20192;-70
2022/05/05 06:35:37;;;;;;;10.23;7.73;;;;;;;18.62;34.47;101742.19;5078677;28;20181;-69
2022/05/05 06:38:03;;;;;;;7.47;6.03;;;;;;;18.39;34.70;101752.88;5076371;28;20857;-69
2022/05/05 06:40:28;;;;;;;12.07;4.60;;;;;;;17.97;35.28;101756.66;5080041;28;20196;-71
2022/05/05 06:42:54;;;;;;;7.27;4.17;;;;;;;18.20;35.46;101754.75;5080195;28;20271;-69
2022/05/05 06:45:19;;;;;;;13.80;11.27;;;;;;;18.36;34.43;101753.81;5066809;28;20485;-68
2022/05/05 06:47:44;;;;;;;4.73;4.00;;;;;;;17.60;36.12;101755.88;5061359;28;20240;-68
2022/05/05 06:50:09;;;;;;;5.77;4.50;;;;;;;17.28;36.93;101764.78;5080828;28;20203;-68
2022/05/05 06:52:35;;;;;;;5.80;4.60;;;;;;;16.43;38.05;101765.59;5080256;28;20169;-68
2022/05/05 06:55:00;;;;;;;6.77;4.47;;;;;;;17.70;36.24;101756.72;5060191;28;20243;-69
2022/05/05 06:57:26;;;;;;;9.53;4.50;;;;;;;17.68;36.15;101762.00;5060317;28;20185;-68
2022/05/05 06:59:51;;;;;;;8.03;4.67;;;;;;;18.45;35.54;101761.63;5074295;28;20481;-69
2022/05/05 07:02:17;;;;;;;7.77;4.50;;;;;;;18.61;34.83;101762.41;5080578;28;20173;-69
2022/05/05 07:07:26;;;;;;;8.13;4.57;;;;;;;19.35;33.85;101758.28;5077227;28;20226;-70
2022/05/05 07:12:36;;;;;;;5.73;4.60;;;;;;;19.40;33.22;101756.44;5074020;28;20239;-69
2022/05/05 07:15:01;;;;;;;6.30;4.00;;;;;;;20.02;32.01;101746.03;5079907;28;20430;-70
2022/05/05 07:17:27;;;;;;;8.13;4.10;;;;;;;21.06;31.35;101755.03;5061854;28;20424;-67
2022/05/05 07:19:52;;;;;;;6.57;3.50;;;;;;;19.86;32.04;101755.03;5060263;28;20169;-67
2022/05/05 07:22:17;;;;;;;6.17;4.03;;;;;;;21.01;31.01;101755.13;5060752;28;20524;-68
2022/05/05 07:24:43;;;;;;;5.80;3.90;;;;;;;21.14;30.87;101755.75;5068313;28;20188;-67
2022/05/05 07:27:10;;;;;;;8.50;6.00;;;;;;;19.71;35.26;101760.50;5080273;28;20177;-69
2022/05/05 07:29:37;;;;;;;6.60;5.23;;;;;;;19.44;33.94;101766.09;5080514;28;20212;-72
2022/05/05 07:32:03;;;;;;;5.87;4.20;;;;;;;18.83;35.30;101757.84;5080015;28;20415;-64
2022/05/05 07:34:28;;;;;;;6.63;4.60;;;;;;;18.92;36.33;101766.63;5080212;28;20469;-65
2022/05/05 07:36:53;;;;;;;5.80;3.70;;;;;;;19.74;33.21;101761.34;5080598;28;20216;-66
2022/05/05 07:39:19;;;;;;;6.60;5.30;;;;;;;21.13;33.07;101761.94;5080097;28;20557;-66
2022/05/05 07:41:44;;;;;;;7.17;4.23;;;;;;;22.54;29.55;101759.06;5071830;28;20174;-66
2022/05/05 07:44:10;;;;;;;6.40;3.60;;;;;;;21.33;30.93;101758.94;5060299;28;20197;-64
2022/05/05 07:46:36;;;;;;;8.33;4.50;;;;;;;22.10;29.75;101753.00;5059855;28;20214;-65
2022/05/05 07:49:03;;;;;;;5.03;3.90;;;;;;;20.42;31.92;101771.06;5059667;28;20201;-67
2022/05/05 07:51:29;;;;;;;6.50;3.80;;;;;;;21.69;29.87;101766.25;5061208;28;20412;-67
2022/05/05 07:56:39;;;;;;;5.83;3.80;;;;;;;19.35;33.04;101788.22;5060199;28;20554;-67
2022/05/05 07:59:04;;;;;;;7.13;5.43;;;;;;;20.24;31.46;101780.16;5066427;28;20419;-66
2022/05/05 08:01:29;;;;;;;5.43;3.80;;;;;;;20.74;30.99;101777.63;5079306;28;20165;-67
2022/05/05 08:03:55;;;;;;;8.30;3.90;;;;;;;21.13;30.55;101777.88;5080021;28;20180;-67
2022/05/05 08:06:20;;;;;;;5.13;3.63;;;;;;;21.37;29.57;101775.69;5079378;28;20169;-68
2022/05/05 08:08:46;;;;;;;7.60;3.93;;;;;;;21.81;28.95;101771.31;5079224;28;20208;-67
2022/05/05 08:11:11;;;;;;;7.60;4.00;;;;;;;21.57;29.37;101777.09;5079372;28;20526;-66
2022/05/05 08:13:36;;;;;;;9.07;4.30;;;;;;;21.07;29.58;101777.09;5079080;28;20181;-68
2022/05/05 08:16:02;;;;;;;6.03;4.10;;;;;;;21.37;28.99;101780.97;5079215;28;20192;-67
2022/05/05 08:18:27;;;;;;;7.10;4.13;;;;;;;21.97;28.48;101784.22;5079660;28;20197;-68
2022/05/05 08:20:53;;;;;;;6.13;4.20;;;;;;;23.30;26.47;101783.75;5079343;28;20169;-68
2022/05/05 08:23:18;;;;;;;5.47;4.30;;;;;;;22.71;27.75;101782.59;5078934;28;20169;-68
2022/05/05 08:28:31;;;;;;;6.20;4.40;;;;;;;21.42;29.42;101784.44;5079390;28;20212;-69
2022/05/05 08:30:57;;;;;;;6.13;4.47;;;;;;;20.73;29.96;101786.50;5082438;28;20484;-69
2022/05/05 08:33:29;;;;;;;5.70;4.43;;;;;;;21.24;30.05;101784.75;5080738;28;20808;-68
2022/05/05 08:35:56;;;;;;;8.87;4.50;;;;;;;21.47;30.01;101782.56;5078877;28;20419;-68
2022/05/05 08:38:21;;;;;;;7.83;4.33;;;;;;;22.09;28.92;101781.31;5079206;28;20495;-68
2022/05/05 08:40:47;;;;;;;4.50;4.10;;;;;;;19.79;30.84;101788.63;5078159;28;20426;-69
2022/05/05 08:43:13;;;;;;;4.67;4.20;;;;;;;20.13;31.09;101793.53;5076033;28;20483;-69
2022/05/05 08:45:39;;;;;;;5.37;4.60;;;;;;;21.19;30.40;101785.72;5071400;28;20482;-67
2022/05/05 08:48:08;;;;;;;7.30;4.87;;;;;;;20.87;30.10;101788.94;5066075;28;20232;-69
2022/05/05 08:50:38;;;;;;;7.80;4.50;;;;;;;21.41;29.34;101792.41;5078121;28;20180;-68
2022/05/05 08:53:05;;;;;;;5.70;4.70;;;;;;;22.47;27.16;101786.69;5077642;28;20443;-67
2022/05/05 08:55:30;;;;;;;4.73;3.83;;;;;;;22.67;27.33;101786.22;5078301;28;20458;-67
2022/05/05 08:57:56;;;;;;;4.50;3.90;;;;;;;22.51;28.24;101786.56;5077373;28;20553;-69
2022/05/05 09:00:21;;;;;;;4.50;4.20;;;;;;;23.47;26.11;101780.66;5074960;28;20181;-68
2022/05/05 09:02:53;;;;;;;4.60;4.13;;;;;;;24.10;25.93;101781.50;5076787;28;20205;-70
2022/05/05 09:05:45;;;;;;;9.20;4.47;;;;;;;21.90;28.82;101790.59;5077533;28;20172;-70
2022/05/05 09:08:11;;;;;;;11.10;4.60;;;;;;;21.09;29.46;101796.50;5077728;28;20876;-68
2022/05/05 09:10:44;;;;;;;5.23;4.00;;;;;;;21.95;28.64;101796.69;5074342;28;20445;-69
2022/05/05 09:13:10;;;;;;;4.50;4.10;;;;;;;21.87;28.67;101795.03;5077526;28;20451;-68
2022/05/05 09:15:37;;;;;;;6.07;4.20;;;;;;;22.44;27.90;101795.63;5073834;28;20435;-70
2022/05/05 09:18:18;;;;;;;6.03;3.87;;;;;;;22.65;28.19;101801.31;5077923;28;20210;-69
2022/05/05 09:20:45;;;;;;;4.40;3.60;;;;;;;22.42;27.14;101799.22;5061505;28;20434;-67
2022/05/05 09:23:32;;;;;;;5.13;3.93;;;;;;;22.88;26.95;101806.09;5077401;28;20868;-69
2022/05/05 09:26:03;;;;;;;3.93;3.53;;;;;;;22.90;26.64;101796.28;5075335;28;20438;-67
2022/05/05 09:28:32;;;;;;;4.27;3.57;;;;;;;22.88;26.76;101795.47;5076399;28;20730;-66
2022/05/05 09:31:08;;;;;;;7.93;3.80;;;;;;;23.75;25.72;101791.38;5076734;28;20820;-66
2022/05/05 09:33:33;;;;;;;5.97;3.70;;;;;;;22.27;26.89;101800.41;5067798;28;20558;-67
2022/05/05 09:35:59;;;;;;;4.87;3.63;;;;;;;21.32;28.21;101799.63;5074181;28;20506;-67
2022/05/05 09:38:28;;;;;;;6.47;3.87;;;;;;;22.32;26.98;101796.72;5077571;28;20441;-66
2022/05/05 09:41:03;;;;;;;5.70;4.07;;;;;;;22.75;26.15;101797.53;5077328;28;20434;-67
2022/05/05 09:43:29;;;;;;;5.00;4.40;;;;;;;22.47;27.02;101792.88;5076795;28;20453;-66
2022/05/05 09:45:57;;;;;;;6.73;3.90;;;;;;;22.91;26.34;101789.19;5058206;28;20850;-68
2022/05/05 09:48:23;;;;;;;5.60;3.80;;;;;;;22.96;26.21;101795.25;5068851;28;20203;-67
2022/05/05 09:50:50;;;;;;;5.77;4.60;;;;;;;23.01;26.17;101791.56;5070956;28;20449;-70
2022/05/05 09:58:46;;;;;;;5.67;4.00;;;;;;;25.27;24.22;101798.16;5064103;28;20699;-68
2022/05/05 10:01:14;;;;;;;3.90;3.50;;;;;;;24.01;24.98;101800.44;5074276;28;20428;-69
2022/05/05 10:04:05;;;;;;;6.50;3.97;;;;;;;25.14;24.05;101803.06;5074495;28;20446;-71
2022/05/05 10:06:40;;;;;;;8.40;4.03;;;;;;;23.81;25.56;101806.31;5078290;28;20688;-68
2022/05/05 10:09:07;;;;;;;4.50;4.10;;;;;;;23.02;26.26;101809.28;5064500;28;20471;-67
2022/05/05 10:11:33;;;;;;;5.57;4.10;;;;;;;23.23;25.93;101822.09;5056801;28;20703;-67
2022/05/05 10:14:04;;;;;;;5.93;4.10;;;;;;;22.57;27.00;101817.47;5062107;28;20454;-66
2022/05/05 10:16:31;;;;;;;5.17;4.20;;;;;;;24.12;25.01;101805.44;5075535;28;20437;-67
2022/05/05 10:18:57;;;;;;;5.90;4.10;;;;;;;24.03;25.93;101814.56;5076884;28;20686;-67
2022/05/05 10:21:59;;;;;;;7.40;3.93;;;;;;;25.28;24.37;101805.25;5076628;28;20464;-68
2022/05/05 10:24:32;;;;;;;5.17;4.60;;;;;;;23.31;26.71;101813.00;5076436;28;20896;-68
2022/05/05 10:26:58;;;;;;;6.40;4.73;;;;;;;22.99;27.95;101812.00;5078859;28;20415;-66
2022/05/05 10:29:40;;;;;;;4.87;4.47;;;;;;;22.73;27.84;101811.78;5077144;28;20931;-69
2022/05/05 10:32:28;;;;;;;9.60;5.00;;;;;;;22.03;28.77;101823.94;5077209;28;20415;-68
2022/05/05 10:35:20;;;;;;;5.73;4.50;;;;;;;23.08;27.35;101818.88;5077148;28;20648;-67
2022/05/05 10:37:45;;;;;;;5.30;4.80;;;;;;;23.36;27.33;101815.53;5075750;28;20476;-68
2022/05/05 10:40:11;;;;;;;7.33;4.90;;;;;;;23.04;27.04;101827.84;5078427;28;20434;-68
2022/05/05 10:42:39;;;;;;;7.60;5.40;;;;;;;23.82;26.39;101824.91;5073716;28;20183;-67
2022/05/05 10:45:29;;;;;;;6.03;5.40;;;;;;;22.88;27.70;101824.72;5081274;28;20187;-67
2022/05/05 10:48:06;;;;;;;5.80;5.23;;;;;;;22.65;28.49;101831.47;5074513;28;20497;-67
2022/05/05 10:50:50;;;;;;;8.03;5.77;;;;;;;23.05;28.40;101830.47;5080782;28;20427;-68
2022/05/05 10:53:32;;;;;;;6.43;4.93;;;;;;;22.33;29.58;101826.84;5080457;28;20447;-67
2022/05/05 10:55:59;;;;;;;5.97;4.83;;;;;;;22.49;29.26;101820.31;5081908;28;20415;-67
2022/05/05 10:59:03;;;;;;;8.43;5.63;;;;;;;22.82;28.98;101819.53;5085766;28;20472;-68
2022/05/05 11:01:31;;;;;;;7.03;5.83;;;;;;;21.56;30.41;101828.44;5072335;28;20458;-68
2022/05/05 11:04:06;;;;;;;6.50;5.10;;;;;;;22.69;29.00;101826.91;5063929;28;20430;-68
2022/05/05 11:06:32;;;;;;;6.60;4.80;;;;;;;22.74;28.55;101825.03;5071232;28;20430;-69
2022/05/05 11:08:58;;;;;;;4.97;4.47;;;;;;;22.41;29.35;101824.03;5080327;28;20458;-70
2022/05/05 11:11:42;;;;;;;5.60;4.47;;;;;;;24.32;27.51;101816.34;5080342;28;20821;-69
2022/05/05 11:23:31;;;;;;;6.93;4.80;;;;;;;22.96;28.92;101819.19;5076772;28;20421;-66
2022/05/05 11:25:57;;;;;;;6.87;5.63;;;;;;;23.98;27.95;101819.19;5077807;28;20430;-67
2022/05/05 11:28:22;;;;;;;5.07;4.60;;;;;;;23.41;28.17;101823.38;5063570;28;20463;-66
2022/05/05 11:30:52;;;;;;;5.47;5.00;;;;;;;23.34;28.41;101830.66;5068304;28;20183;-67
2022/05/05 11:33:19;;;;;;;6.37;5.77;;;;;;;22.19;29.87;101825.38;5074258;28;20239;-66
2022/05/05 11:35:58;;;;;;;8.60;4.50;;;;;;;23.83;28.73;101816.00;5073766;28;20435;-66
2022/05/05 11:38:26;;;;;;;6.73;4.80;;;;;;;23.20;28.80;101834.59;5076576;28;20461;-69
2022/05/05 11:41:05;;;;;;;6.60;5.73;;;;;;;24.27;27.52;101815.63;5078453;28;20485;-68
2022/05/05 11:46:16;;;;;;;6.20;5.23;;;;;;;22.69;29.16;101829.56;5070842;28;20516;-69
2022/05/05 11:48:43;;;;;;;6.20;4.87;;;;;;;20.92;31.00;101829.50;5075851;28;20498;-70
2022/05/05 11:51:09;;;;;;;5.10;4.60;;;;;;;21.59;30.87;101828.34;5078001;28;20476;-70
2022/05/05 11:53:35;;;;;;;5.47;4.97;;;;;;;22.09;30.05;101815.84;5078022;28;20431;-67
2022/05/05 11:56:01;;;;;;;5.40;4.90;;;;;;;22.43;30.06;101823.09;5078252;28;20419;-70
2022/05/05 12:04:01;;;;;;;7.03;5.20;;;;;;;20.79;32.73;101826.16;5079612;28;20414;-68
2022/05/05 12:06:27;;;;;;;6.17;5.13;;;;;;;20.63;32.28;101830.75;5066007;28;20427;-69